sensor_id;sensor_type;location;lat;lon;timestamp;P1;durP1;ratioP1;P2;durP2;ratioP2
71646;SDS011;59706;45.634;11.704;2023-04-24T00:01:36;18.00;;;10.10;;
71646;SDS011;59706;45.634;11.704;2023-04-24T00:04:05;16.30;;;9.90;;
71646;SDS011;59706;45.634;11.704;2023-04-24T00:06:33;16.50;;;9.80;;
71646;SDS011;59706;45.634;11.704;2023-04-24T00:09:01;15.30;;;9.70;;
71646;SDS011;59706;45.634;11.704;2023-04-24T00:11:27;17.30;;;9.80;;
71646;SDS011;59706;45.634;11.704;2023-04-24T00:13:55;18.30;;;9.40;;
71646;SDS011;59706;45.634;11.704;2023-04-24T00:16:23;16.60;;;9.20;;
71646;SDS011;59706;45.634;11.704;2023-04-24T00:18:50;16.10;;;9.20;;
71646;SDS011;59706;45.634;11.704;2023-04-24T00:21:21;16.00;;;8.80;;
71646;SDS011;59706;45.634;11.704;2023-04-24T00:23:51;15.40;;;9.10;;
71646;SDS011;59706;45.634;11.704;2023-04-24T00:26:18;14.50;;;9.50;;
71646;SDS011;59706;45.634;11.704;2023-04-24T00:28:45;17.10;;;9.60;;
71646;SDS011;59706;45.634;11.704;2023-04-24T00:31:13;16.20;;;9.90;;
71646;SDS011;59706;45.634;11.704;2023-04-24T00:33:40;15.90;;;8.70;;
71646;SDS011;59706;45.634;11.704;2023-04-24T00:36:07;15.60;;;8.60;;
71646;SDS011;59706;45.634;11.704;2023-04-24T00:38:35;16.10;;;8.80;;
71646;SDS011;59706;45.634;11.704;2023-04-24T00:41:02;17.20;;;9.00;;
71646;SDS011;59706;45.634;11.704;2023-04-24T00:43:29;15.20;;;9.20;;
71646;SDS011;59706;45.634;11.704;2023-04-24T00:45:57;15.10;;;8.50;;
71646;SDS011;59706;45.634;11.704;2023-04-24T00:48:27;14.50;;;8.90;;
71646;SDS011;59706;45.634;11.704;2023-04-24T00:50:55;14.60;;;9.00;;
71646;SDS011;59706;45.634;11.704;2023-04-24T00:53:24;17.10;;;10.20;;
71646;SDS011;59706;45.634;11.704;2023-04-24T00:55:51;16.60;;;10.10;;
71646;SDS011;59706;45.634;11.704;2023-04-24T00:58:18;18.50;;;10.00;;
71646;SDS011;59706;45.634;11.704;2023-04-24T01:00:45;15.90;;;9.30;;
71646;SDS011;59706;45.634;11.704;2023-04-24T01:03:13;15.80;;;9.80;;
71646;SDS011;59706;45.634;11.704;2023-04-24T01:05:40;15.60;;;9.30;;
71646;SDS011;59706;45.634;11.704;2023-04-24T01:08:08;16.40;;;9.60;;
71646;SDS011;59706;45.634;11.704;2023-04-24T01:10:36;16.30;;;9.50;;
71646;SDS011;59706;45.634;11.704;2023-04-24T01:13:05;16.30;;;9.00;;
71646;SDS011;59706;45.634;11.704;2023-04-24T01:15:31;15.80;;;9.20;;
71646;SDS011;59706;45.634;11.704;2023-04-24T01:17:59;16.20;;;9.20;;
71646;SDS011;59706;45.634;11.704;2023-04-24T01:20:26;17.30;;;8.90;;
71646;SDS011;59706;45.634;11.704;2023-04-24T01:22:55;15.40;;;8.90;;
71646;SDS011;59706;45.634;11.704;2023-04-24T01:25:23;15.00;;;8.90;;
71646;SDS011;59706;45.634;11.704;2023-04-24T01:27:51;13.70;;;8.70;;
71646;SDS011;59706;45.634;11.704;2023-04-24T01:30:19;16.60;;;8.70;;
71646;SDS011;59706;45.634;11.704;2023-04-24T01:32:45;15.40;;;8.90;;
71646;SDS011;59706;45.634;11.704;2023-04-24T01:35:13;15.10;;;9.10;;
71646;SDS011;59706;45.634;11.704;2023-04-24T01:37:40;13.20;;;8.10;;
71646;SDS011;59706;45.634;11.704;2023-04-24T01:40:09;16.20;;;8.70;;
71646;SDS011;59706;45.634;11.704;2023-04-24T01:42:37;14.00;;;8.20;;
71646;SDS011;59706;45.634;11.704;2023-04-24T01:45:06;12.60;;;8.30;;
71646;SDS011;59706;45.634;11.704;2023-04-24T01:47:36;13.70;;;8.40;;
71646;SDS011;59706;45.634;11.704;2023-04-24T01:50:04;12.50;;;7.50;;
71646;SDS011;59706;45.634;11.704;2023-04-24T01:52:33;12.50;;;8.20;;
71646;SDS011;59706;45.634;11.704;2023-04-24T01:55:02;13.10;;;7.70;;
71646;SDS011;59706;45.634;11.704;2023-04-24T01:57:33;12.20;;;8.20;;
71646;SDS011;59706;45.634;11.704;2023-04-24T02:00:00;13.40;;;7.60;;
71646;SDS011;59706;45.634;11.704;2023-04-24T02:02:29;15.60;;;7.90;;
71646;SDS011;59706;45.634;11.704;2023-04-24T02:04:56;12.20;;;7.30;;
71646;SDS011;59706;45.634;11.704;2023-04-24T02:07:23;14.90;;;7.40;;
71646;SDS011;59706;45.634;11.704;2023-04-24T02:09:51;12.60;;;6.80;;
71646;SDS011;59706;45.634;11.704;2023-04-24T02:12:18;12.20;;;7.00;;
71646;SDS011;59706;45.634;11.704;2023-04-24T02:14:45;13.00;;;7.40;;
71646;SDS011;59706;45.634;11.704;2023-04-24T02:17:13;12.60;;;7.40;;
71646;SDS011;59706;45.634;11.704;2023-04-24T02:19:41;12.50;;;7.40;;
71646;SDS011;59706;45.634;11.704;2023-04-24T02:22:08;12.20;;;7.60;;
71646;SDS011;59706;45.634;11.704;2023-04-24T02:24:36;13.20;;;7.60;;
71646;SDS011;59706;45.634;11.704;2023-04-24T02:27:04;12.20;;;7.50;;
71646;SDS011;59706;45.634;11.704;2023-04-24T02:29:32;12.60;;;8.00;;
71646;SDS011;59706;45.634;11.704;2023-04-24T02:31:59;13.60;;;7.70;;
71646;SDS011;59706;45.634;11.704;2023-04-24T02:34:27;12.70;;;7.60;;
71646;SDS011;59706;45.634;11.704;2023-04-24T02:36:54;11.50;;;6.80;;
71646;SDS011;59706;45.634;11.704;2023-04-24T02:39:21;11.70;;;6.80;;
71646;SDS011;59706;45.634;11.704;2023-04-24T02:41:48;13.10;;;6.70;;
71646;SDS011;59706;45.634;11.704;2023-04-24T02:44:15;12.20;;;6.70;;
71646;SDS011;59706;45.634;11.704;2023-04-24T02:46:43;11.60;;;6.90;;
71646;SDS011;59706;45.634;11.704;2023-04-24T02:49:10;12.00;;;6.70;;
71646;SDS011;59706;45.634;11.704;2023-04-24T02:51:38;11.30;;;6.40;;
71646;SDS011;59706;45.634;11.704;2023-04-24T02:54:07;10.80;;;6.10;;
71646;SDS011;59706;45.634;11.704;2023-04-24T02:56:54;10.50;;;6.10;;
71646;SDS011;59706;45.634;11.704;2023-04-24T02:59:22;10.80;;;6.00;;
71646;SDS011;59706;45.634;11.704;2023-04-24T03:01:50;10.40;;;6.10;;
71646;SDS011;59706;45.634;11.704;2023-04-24T03:04:17;12.50;;;6.00;;
71646;SDS011;59706;45.634;11.704;2023-04-24T03:06:45;13.20;;;6.30;;
71646;SDS011;59706;45.634;11.704;2023-04-24T03:09:31;11.40;;;6.00;;
71646;SDS011;59706;45.634;11.704;2023-04-24T03:11:58;12.10;;;6.30;;
71646;SDS011;59706;45.634;11.704;2023-04-24T03:14:26;12.10;;;6.70;;
71646;SDS011;59706;45.634;11.704;2023-04-24T03:16:55;11.10;;;5.80;;
71646;SDS011;59706;45.634;11.704;2023-04-24T03:19:23;11.70;;;6.50;;
71646;SDS011;59706;45.634;11.704;2023-04-24T03:21:50;10.60;;;6.20;;
71646;SDS011;59706;45.634;11.704;2023-04-24T03:24:18;13.40;;;6.00;;
71646;SDS011;59706;45.634;11.704;2023-04-24T03:26:46;10.60;;;5.80;;
71646;SDS011;59706;45.634;11.704;2023-04-24T03:29:14;12.20;;;5.80;;
71646;SDS011;59706;45.634;11.704;2023-04-24T03:31:41;9.60;;;5.40;;
71646;SDS011;59706;45.634;11.704;2023-04-24T03:34:08;9.60;;;5.80;;
71646;SDS011;59706;45.634;11.704;2023-04-24T03:36:35;11.20;;;6.00;;
71646;SDS011;59706;45.634;11.704;2023-04-24T03:39:03;12.00;;;5.70;;
71646;SDS011;59706;45.634;11.704;2023-04-24T03:41:31;12.20;;;5.80;;
71646;SDS011;59706;45.634;11.704;2023-04-24T03:43:58;9.90;;;5.30;;
71646;SDS011;59706;45.634;11.704;2023-04-24T03:46:25;10.60;;;5.80;;
71646;SDS011;59706;45.634;11.704;2023-04-24T03:48:53;10.50;;;5.40;;
71646;SDS011;59706;45.634;11.704;2023-04-24T03:51:20;10.60;;;5.10;;
71646;SDS011;59706;45.634;11.704;2023-04-24T03:53:48;10.70;;;5.70;;
71646;SDS011;59706;45.634;11.704;2023-04-24T03:56:15;10.30;;;5.90;;
71646;SDS011;59706;45.634;11.704;2023-04-24T03:58:42;10.50;;;5.30;;
71646;SDS011;59706;45.634;11.704;2023-04-24T04:01:10;10.00;;;5.50;;
71646;SDS011;59706;45.634;11.704;2023-04-24T04:03:37;10.50;;;5.20;;
71646;SDS011;59706;45.634;11.704;2023-04-24T04:06:06;10.10;;;5.40;;
71646;SDS011;59706;45.634;11.704;2023-04-24T04:08:33;11.10;;;5.50;;
71646;SDS011;59706;45.634;11.704;2023-04-24T04:11:00;11.20;;;5.30;;
71646;SDS011;59706;45.634;11.704;2023-04-24T04:13:28;10.70;;;5.40;;
71646;SDS011;59706;45.634;11.704;2023-04-24T04:15:55;8.70;;;4.60;;
71646;SDS011;59706;45.634;11.704;2023-04-24T04:18:21;9.70;;;4.80;;
71646;SDS011;59706;45.634;11.704;2023-04-24T04:20:49;8.50;;;4.60;;
71646;SDS011;59706;45.634;11.704;2023-04-24T04:23:16;9.80;;;5.00;;
71646;SDS011;59706;45.634;11.704;2023-04-24T04:25:43;10.50;;;5.80;;
71646;SDS011;59706;45.634;11.704;2023-04-24T04:28:12;13.40;;;6.30;;
71646;SDS011;59706;45.634;11.704;2023-04-24T04:30:40;10.10;;;5.80;;
71646;SDS011;59706;45.634;11.704;2023-04-24T04:33:08;13.20;;;6.30;;
71646;SDS011;59706;45.634;11.704;2023-04-24T04:35:36;11.40;;;6.00;;
71646;SDS011;59706;45.634;11.704;2023-04-24T04:38:03;11.20;;;6.70;;
71646;SDS011;59706;45.634;11.704;2023-04-24T04:40:33;10.50;;;6.40;;
71646;SDS011;59706;45.634;11.704;2023-04-24T04:43:01;10.40;;;6.00;;
71646;SDS011;59706;45.634;11.704;2023-04-24T04:45:28;11.20;;;6.60;;
71646;SDS011;59706;45.634;11.704;2023-04-24T04:47:56;12.20;;;6.30;;
71646;SDS011;59706;45.634;11.704;2023-04-24T04:50:23;10.60;;;6.10;;
71646;SDS011;59706;45.634;11.704;2023-04-24T04:52:50;12.60;;;6.30;;
71646;SDS011;59706;45.634;11.704;2023-04-24T04:55:18;12.10;;;6.70;;
71646;SDS011;59706;45.634;11.704;2023-04-24T04:57:46;11.90;;;6.20;;
71646;SDS011;59706;45.634;11.704;2023-04-24T05:00:15;12.00;;;7.10;;
71646;SDS011;59706;45.634;11.704;2023-04-24T05:02:42;11.90;;;6.50;;
71646;SDS011;59706;45.634;11.704;2023-04-24T05:05:10;12.50;;;7.10;;
71646;SDS011;59706;45.634;11.704;2023-04-24T05:07:37;12.10;;;6.90;;
71646;SDS011;59706;45.634;11.704;2023-04-24T05:10:07;11.60;;;6.80;;
71646;SDS011;59706;45.634;11.704;2023-04-24T05:12:35;11.70;;;6.40;;
71646;SDS011;59706;45.634;11.704;2023-04-24T05:15:04;12.80;;;7.30;;
71646;SDS011;59706;45.634;11.704;2023-04-24T05:17:33;13.20;;;6.60;;
71646;SDS011;59706;45.634;11.704;2023-04-24T05:20:01;12.70;;;6.80;;
71646;SDS011;59706;45.634;11.704;2023-04-24T05:22:31;12.90;;;7.00;;
71646;SDS011;59706;45.634;11.704;2023-04-24T05:24:58;11.80;;;6.70;;
71646;SDS011;59706;45.634;11.704;2023-04-24T05:27:25;13.40;;;6.90;;
71646;SDS011;59706;45.634;11.704;2023-04-24T05:29:53;11.80;;;6.40;;
71646;SDS011;59706;45.634;11.704;2023-04-24T05:32:21;13.30;;;6.70;;
71646;SDS011;59706;45.634;11.704;2023-04-24T05:34:48;15.20;;;7.40;;
71646;SDS011;59706;45.634;11.704;2023-04-24T05:37:15;13.80;;;6.60;;
71646;SDS011;59706;45.634;11.704;2023-04-24T05:39:42;13.10;;;6.60;;
71646;SDS011;59706;45.634;11.704;2023-04-24T05:42:09;11.70;;;6.30;;
71646;SDS011;59706;45.634;11.704;2023-04-24T05:44:39;11.40;;;6.00;;
71646;SDS011;59706;45.634;11.704;2023-04-24T05:47:06;12.80;;;7.10;;
71646;SDS011;59706;45.634;11.704;2023-04-24T05:49:34;12.20;;;6.50;;
71646;SDS011;59706;45.634;11.704;2023-04-24T05:52:02;12.10;;;6.10;;
71646;SDS011;59706;45.634;11.704;2023-04-24T05:54:31;11.60;;;5.90;;
71646;SDS011;59706;45.634;11.704;2023-04-24T05:56:58;14.00;;;6.80;;
71646;SDS011;59706;45.634;11.704;2023-04-24T05:59:30;12.30;;;6.90;;
71646;SDS011;59706;45.634;11.704;2023-04-24T06:01:57;12.50;;;7.30;;
71646;SDS011;59706;45.634;11.704;2023-04-24T06:04:25;12.40;;;6.60;;
71646;SDS011;59706;45.634;11.704;2023-04-24T06:06:52;13.10;;;7.20;;
71646;SDS011;59706;45.634;11.704;2023-04-24T06:09:22;11.10;;;6.30;;
71646;SDS011;59706;45.634;11.704;2023-04-24T06:11:49;10.70;;;5.80;;
71646;SDS011;59706;45.634;11.704;2023-04-24T06:14:18;9.70;;;5.70;;
71646;SDS011;59706;45.634;11.704;2023-04-24T06:16:45;10.50;;;5.20;;
71646;SDS011;59706;45.634;11.704;2023-04-24T06:19:13;10.20;;;5.60;;
71646;SDS011;59706;45.634;11.704;2023-04-24T06:21:40;8.80;;;5.00;;
71646;SDS011;59706;45.634;11.704;2023-04-24T06:24:08;13.30;;;5.90;;
71646;SDS011;59706;45.634;11.704;2023-04-24T06:26:36;12.40;;;5.80;;
71646;SDS011;59706;45.634;11.704;2023-04-24T06:29:03;12.60;;;6.70;;
71646;SDS011;59706;45.634;11.704;2023-04-24T06:31:31;11.20;;;5.90;;
71646;SDS011;59706;45.634;11.704;2023-04-24T06:34:02;10.40;;;5.50;;
71646;SDS011;59706;45.634;11.704;2023-04-24T06:36:29;10.70;;;6.30;;
71646;SDS011;59706;45.634;11.704;2023-04-24T06:38:57;11.40;;;6.00;;
71646;SDS011;59706;45.634;11.704;2023-04-24T06:41:24;12.10;;;5.90;;
71646;SDS011;59706;45.634;11.704;2023-04-24T06:43:51;10.20;;;5.50;;
71646;SDS011;59706;45.634;11.704;2023-04-24T06:46:18;11.90;;;5.60;;
71646;SDS011;59706;45.634;11.704;2023-04-24T06:48:48;10.40;;;4.40;;
71646;SDS011;59706;45.634;11.704;2023-04-24T06:51:14;8.80;;;4.20;;
71646;SDS011;59706;45.634;11.704;2023-04-24T06:53:43;9.50;;;4.30;;
71646;SDS011;59706;45.634;11.704;2023-04-24T06:56:10;8.10;;;3.90;;
71646;SDS011;59706;45.634;11.704;2023-04-24T06:58:40;8.60;;;3.30;;
71646;SDS011;59706;45.634;11.704;2023-04-24T07:01:08;6.90;;;2.70;;
71646;SDS011;59706;45.634;11.704;2023-04-24T07:03:36;7.40;;;3.00;;
71646;SDS011;59706;45.634;11.704;2023-04-24T07:06:06;7.00;;;3.00;;
71646;SDS011;59706;45.634;11.704;2023-04-24T07:08:33;6.90;;;2.80;;
71646;SDS011;59706;45.634;11.704;2023-04-24T07:11:01;7.50;;;2.90;;
71646;SDS011;59706;45.634;11.704;2023-04-24T07:13:28;7.40;;;3.00;;
71646;SDS011;59706;45.634;11.704;2023-04-24T07:15:56;6.80;;;2.70;;
71646;SDS011;59706;45.634;11.704;2023-04-24T07:18:24;7.30;;;2.90;;
71646;SDS011;59706;45.634;11.704;2023-04-24T07:20:52;8.00;;;3.40;;
71646;SDS011;59706;45.634;11.704;2023-04-24T07:23:19;9.40;;;3.30;;
71646;SDS011;59706;45.634;11.704;2023-04-24T07:25:46;7.80;;;3.40;;
71646;SDS011;59706;45.634;11.704;2023-04-24T07:28:14;9.70;;;4.20;;
71646;SDS011;59706;45.634;11.704;2023-04-24T07:30:44;6.10;;;2.60;;
71646;SDS011;59706;45.634;11.704;2023-04-24T07:33:11;7.80;;;2.90;;
71646;SDS011;59706;45.634;11.704;2023-04-24T07:35:39;6.10;;;2.50;;
71646;SDS011;59706;45.634;11.704;2023-04-24T07:38:05;5.50;;;1.50;;
71646;SDS011;59706;45.634;11.704;2023-04-24T07:40:32;4.50;;;1.20;;
71646;SDS011;59706;45.634;11.704;2023-04-24T07:43:00;4.50;;;0.80;;
71646;SDS011;59706;45.634;11.704;2023-04-24T07:45:27;2.40;;;0.50;;
71646;SDS011;59706;45.634;11.704;2023-04-24T07:47:54;2.40;;;0.40;;
71646;SDS011;59706;45.634;11.704;2023-04-24T07:50:22;2.60;;;0.60;;
71646;SDS011;59706;45.634;11.704;2023-04-24T07:52:49;3.80;;;0.50;;
71646;SDS011;59706;45.634;11.704;2023-04-24T07:55:17;3.20;;;0.70;;
71646;SDS011;59706;45.634;11.704;2023-04-24T07:57:44;5.00;;;0.80;;
71646;SDS011;59706;45.634;11.704;2023-04-24T08:00:12;5.30;;;1.10;;
71646;SDS011;59706;45.634;11.704;2023-04-24T08:02:42;5.10;;;1.20;;
71646;SDS011;59706;45.634;11.704;2023-04-24T08:05:09;4.60;;;1.30;;
71646;SDS011;59706;45.634;11.704;2023-04-24T08:07:36;5.20;;;1.60;;
71646;SDS011;59706;45.634;11.704;2023-04-24T08:10:09;6.00;;;1.40;;
71646;SDS011;59706;45.634;11.704;2023-04-24T08:12:37;4.10;;;1.00;;
71646;SDS011;59706;45.634;11.704;2023-04-24T08:15:07;4.80;;;1.10;;
71646;SDS011;59706;45.634;11.704;2023-04-24T08:17:37;5.80;;;1.20;;
71646;SDS011;59706;45.634;11.704;2023-04-24T08:20:04;3.90;;;0.90;;
71646;SDS011;59706;45.634;11.704;2023-04-24T08:22:42;4.40;;;0.90;;
71646;SDS011;59706;45.634;11.704;2023-04-24T08:25:13;3.70;;;1.00;;
71646;SDS011;59706;45.634;11.704;2023-04-24T08:27:40;4.00;;;1.10;;
71646;SDS011;59706;45.634;11.704;2023-04-24T08:30:09;4.50;;;1.60;;
71646;SDS011;59706;45.634;11.704;2023-04-24T08:32:39;5.20;;;1.80;;
71646;SDS011;59706;45.634;11.704;2023-04-24T08:35:08;3.90;;;1.00;;
71646;SDS011;59706;45.634;11.704;2023-04-24T08:37:36;4.30;;;1.20;;
71646;SDS011;59706;45.634;11.704;2023-04-24T08:40:14;5.10;;;1.60;;
71646;SDS011;59706;45.634;11.704;2023-04-24T08:42:44;5.00;;;1.40;;
71646;SDS011;59706;45.634;11.704;2023-04-24T08:45:12;5.20;;;2.00;;
71646;SDS011;59706;45.634;11.704;2023-04-24T08:47:40;6.20;;;2.50;;
71646;SDS011;59706;45.634;11.704;2023-04-24T08:50:09;5.40;;;1.90;;
71646;SDS011;59706;45.634;11.704;2023-04-24T08:52:38;5.20;;;1.80;;
71646;SDS011;59706;45.634;11.704;2023-04-24T08:55:07;5.80;;;2.10;;
71646;SDS011;59706;45.634;11.704;2023-04-24T08:57:36;5.60;;;2.00;;
71646;SDS011;59706;45.634;11.704;2023-04-24T09:00:09;5.40;;;1.80;;
71646;SDS011;59706;45.634;11.704;2023-04-24T09:02:42;4.90;;;1.40;;
71646;SDS011;59706;45.634;11.704;2023-04-24T09:05:09;5.60;;;1.70;;
71646;SDS011;59706;45.634;11.704;2023-04-24T09:07:39;5.40;;;1.40;;
71646;SDS011;59706;45.634;11.704;2023-04-24T09:10:11;3.60;;;1.00;;
71646;SDS011;59706;45.634;11.704;2023-04-24T09:12:38;4.20;;;1.10;;
71646;SDS011;59706;45.634;11.704;2023-04-24T09:15:08;4.70;;;1.30;;
71646;SDS011;59706;45.634;11.704;2023-04-24T09:17:37;4.60;;;1.10;;
71646;SDS011;59706;45.634;11.704;2023-04-24T09:20:06;5.90;;;1.70;;
71646;SDS011;59706;45.634;11.704;2023-04-24T09:22:36;5.20;;;1.30;;
71646;SDS011;59706;45.634;11.704;2023-04-24T09:25:04;4.20;;;1.10;;
71646;SDS011;59706;45.634;11.704;2023-04-24T09:27:35;3.80;;;0.90;;
71646;SDS011;59706;45.634;11.704;2023-04-24T09:30:04;3.50;;;0.80;;
71646;SDS011;59706;45.634;11.704;2023-04-24T09:32:34;3.30;;;0.90;;
71646;SDS011;59706;45.634;11.704;2023-04-24T09:35:10;4.20;;;1.00;;
71646;SDS011;59706;45.634;11.704;2023-04-24T09:37:43;4.70;;;0.70;;
71646;SDS011;59706;45.634;11.704;2023-04-24T09:42:53;3.30;;;0.80;;
71646;SDS011;59706;45.634;11.704;2023-04-24T09:45:22;3.30;;;0.90;;
71646;SDS011;59706;45.634;11.704;2023-04-24T09:48:05;3.80;;;0.90;;
71646;SDS011;59706;45.634;11.704;2023-04-24T09:50:35;2.80;;;0.60;;
71646;SDS011;59706;45.634;11.704;2023-04-24T09:53:03;2.10;;;0.50;;
71646;SDS011;59706;45.634;11.704;2023-04-24T09:55:31;3.60;;;0.70;;
71646;SDS011;59706;45.634;11.704;2023-04-24T09:57:59;3.00;;;0.70;;
71646;SDS011;59706;45.634;11.704;2023-04-24T10:00:29;3.40;;;0.90;;
71646;SDS011;59706;45.634;11.704;2023-04-24T10:03:24;3.10;;;0.80;;
71646;SDS011;59706;45.634;11.704;2023-04-24T10:06:13;3.30;;;0.90;;
71646;SDS011;59706;45.634;11.704;2023-04-24T10:08:41;2.60;;;0.50;;
71646;SDS011;59706;45.634;11.704;2023-04-24T10:11:10;2.30;;;0.60;;
71646;SDS011;59706;45.634;11.704;2023-04-24T10:13:39;2.60;;;0.60;;
71646;SDS011;59706;45.634;11.704;2023-04-24T10:16:07;3.30;;;0.80;;
71646;SDS011;59706;45.634;11.704;2023-04-24T10:18:34;3.30;;;0.50;;
71646;SDS011;59706;45.634;11.704;2023-04-24T10:21:02;2.80;;;0.50;;
71646;SDS011;59706;45.634;11.704;2023-04-24T10:23:30;3.70;;;1.00;;
71646;SDS011;59706;45.634;11.704;2023-04-24T10:25:58;3.70;;;0.80;;
71646;SDS011;59706;45.634;11.704;2023-04-24T10:28:26;2.10;;;0.50;;
71646;SDS011;59706;45.634;11.704;2023-04-24T10:30:55;2.40;;;0.50;;
71646;SDS011;59706;45.634;11.704;2023-04-24T10:33:22;2.40;;;0.60;;
71646;SDS011;59706;45.634;11.704;2023-04-24T10:35:51;2.90;;;0.70;;
71646;SDS011;59706;45.634;11.704;2023-04-24T10:38:23;2.90;;;0.60;;
71646;SDS011;59706;45.634;11.704;2023-04-24T10:40:50;3.10;;;0.70;;
71646;SDS011;59706;45.634;11.704;2023-04-24T10:43:19;2.70;;;0.70;;
71646;SDS011;59706;45.634;11.704;2023-04-24T10:46:06;3.60;;;0.80;;
71646;SDS011;59706;45.634;11.704;2023-04-24T10:48:33;3.00;;;0.60;;
71646;SDS011;59706;45.634;11.704;2023-04-24T10:51:01;2.60;;;0.70;;
71646;SDS011;59706;45.634;11.704;2023-04-24T10:53:29;2.60;;;0.70;;
71646;SDS011;59706;45.634;11.704;2023-04-24T10:56:07;3.10;;;0.80;;
71646;SDS011;59706;45.634;11.704;2023-04-24T10:58:51;3.80;;;0.90;;
71646;SDS011;59706;45.634;11.704;2023-04-24T11:01:30;3.30;;;0.90;;
71646;SDS011;59706;45.634;11.704;2023-04-24T11:04:02;3.30;;;0.80;;
71646;SDS011;59706;45.634;11.704;2023-04-24T11:06:30;3.90;;;1.00;;
71646;SDS011;59706;45.634;11.704;2023-04-24T11:09:21;3.20;;;0.70;;
71646;SDS011;59706;45.634;11.704;2023-04-24T11:11:48;3.40;;;0.70;;
71646;SDS011;59706;45.634;11.704;2023-04-24T11:14:16;4.60;;;0.80;;
71646;SDS011;59706;45.634;11.704;2023-04-24T11:16:53;3.50;;;0.90;;
71646;SDS011;59706;45.634;11.704;2023-04-24T11:19:44;3.30;;;0.80;;
71646;SDS011;59706;45.634;11.704;2023-04-24T11:22:18;4.60;;;1.10;;
71646;SDS011;59706;45.634;11.704;2023-04-24T11:32:35;4.60;;;1.10;;
71646;SDS011;59706;45.634;11.704;2023-04-24T11:35:16;3.50;;;0.90;;
71646;SDS011;59706;45.634;11.704;2023-04-24T11:37:46;3.40;;;1.00;;
71646;SDS011;59706;45.634;11.704;2023-04-24T11:40:18;4.50;;;1.10;;
71646;SDS011;59706;45.634;11.704;2023-04-24T11:42:53;4.50;;;1.10;;
71646;SDS011;59706;45.634;11.704;2023-04-24T11:45:47;3.80;;;1.20;;
71646;SDS011;59706;45.634;11.704;2023-04-24T11:48:19;3.90;;;0.90;;
71646;SDS011;59706;45.634;11.704;2023-04-24T11:50:47;3.50;;;0.90;;
71646;SDS011;59706;45.634;11.704;2023-04-24T11:53:14;3.50;;;0.90;;
71646;SDS011;59706;45.634;11.704;2023-04-24T11:55:42;4.10;;;1.20;;
71646;SDS011;59706;45.634;11.704;2023-04-24T11:58:09;4.50;;;1.30;;
71646;SDS011;59706;45.634;11.704;2023-04-24T12:00:37;4.90;;;1.20;;
71646;SDS011;59706;45.634;11.704;2023-04-24T12:03:11;3.60;;;1.00;;
71646;SDS011;59706;45.634;11.704;2023-04-24T12:05:38;3.80;;;0.90;;
71646;SDS011;59706;45.634;11.704;2023-04-24T12:08:06;5.00;;;1.10;;
71646;SDS011;59706;45.634;11.704;2023-04-24T12:10:34;4.20;;;1.10;;
71646;SDS011;59706;45.634;11.704;2023-04-24T12:13:01;4.90;;;1.20;;
71646;SDS011;59706;45.634;11.704;2023-04-24T12:15:28;4.50;;;1.20;;
71646;SDS011;59706;45.634;11.704;2023-04-24T12:17:56;5.60;;;1.80;;
71646;SDS011;59706;45.634;11.704;2023-04-24T12:20:28;4.50;;;1.20;;
71646;SDS011;59706;45.634;11.704;2023-04-24T12:23:14;4.30;;;1.20;;
71646;SDS011;59706;45.634;11.704;2023-04-24T12:25:43;4.50;;;1.20;;
71646;SDS011;59706;45.634;11.704;2023-04-24T12:28:12;4.10;;;0.90;;
71646;SDS011;59706;45.634;11.704;2023-04-24T12:31:03;4.90;;;1.60;;
71646;SDS011;59706;45.634;11.704;2023-04-24T12:33:33;4.90;;;1.40;;
71646;SDS011;59706;45.634;11.704;2023-04-24T12:36:00;4.30;;;1.10;;
71646;SDS011;59706;45.634;11.704;2023-04-24T12:38:28;5.30;;;1.30;;
71646;SDS011;59706;45.634;11.704;2023-04-24T12:41:13;4.30;;;1.10;;
71646;SDS011;59706;45.634;11.704;2023-04-24T12:43:51;4.50;;;1.30;;
71646;SDS011;59706;45.634;11.704;2023-04-24T12:46:18;4.60;;;1.20;;
71646;SDS011;59706;45.634;11.704;2023-04-24T12:48:46;5.20;;;1.80;;
71646;SDS011;59706;45.634;11.704;2023-04-24T12:51:13;5.80;;;1.40;;
71646;SDS011;59706;45.634;11.704;2023-04-24T12:53:41;4.50;;;1.40;;
71646;SDS011;59706;45.634;11.704;2023-04-24T12:56:08;4.30;;;1.30;;
71646;SDS011;59706;45.634;11.704;2023-04-24T12:58:37;5.00;;;1.30;;
71646;SDS011;59706;45.634;11.704;2023-04-24T13:01:05;4.60;;;1.40;;
71646;SDS011;59706;45.634;11.704;2023-04-24T13:03:32;4.80;;;1.50;;
71646;SDS011;59706;45.634;11.704;2023-04-24T13:05:59;5.20;;;1.50;;
71646;SDS011;59706;45.634;11.704;2023-04-24T13:08:26;5.30;;;1.80;;
71646;SDS011;59706;45.634;11.704;2023-04-24T13:10:54;4.90;;;1.40;;
71646;SDS011;59706;45.634;11.704;2023-04-24T13:13:20;6.50;;;2.30;;
71646;SDS011;59706;45.634;11.704;2023-04-24T13:15:48;4.80;;;1.30;;
71646;SDS011;59706;45.634;11.704;2023-04-24T13:18:15;4.60;;;1.30;;
71646;SDS011;59706;45.634;11.704;2023-04-24T13:20:42;5.70;;;1.60;;
71646;SDS011;59706;45.634;11.704;2023-04-24T13:23:11;5.20;;;2.10;;
71646;SDS011;59706;45.634;11.704;2023-04-24T13:25:39;5.30;;;1.60;;
71646;SDS011;59706;45.634;11.704;2023-04-24T13:28:05;4.30;;;1.20;;
71646;SDS011;59706;45.634;11.704;2023-04-24T13:30:32;5.10;;;1.30;;
71646;SDS011;59706;45.634;11.704;2023-04-24T13:33:00;5.30;;;1.30;;
71646;SDS011;59706;45.634;11.704;2023-04-24T13:35:27;4.70;;;1.30;;
71646;SDS011;59706;45.634;11.704;2023-04-24T13:37:54;4.50;;;1.50;;
71646;SDS011;59706;45.634;11.704;2023-04-24T13:40:22;4.80;;;1.20;;
71646;SDS011;59706;45.634;11.704;2023-04-24T13:42:49;5.40;;;1.40;;
71646;SDS011;59706;45.634;11.704;2023-04-24T13:45:16;5.60;;;1.50;;
71646;SDS011;59706;45.634;11.704;2023-04-24T13:47:44;5.00;;;1.50;;
71646;SDS011;59706;45.634;11.704;2023-04-24T13:50:12;4.70;;;1.50;;
71646;SDS011;59706;45.634;11.704;2023-04-24T13:52:39;4.90;;;1.80;;
71646;SDS011;59706;45.634;11.704;2023-04-24T13:55:10;4.50;;;1.40;;
71646;SDS011;59706;45.634;11.704;2023-04-24T13:57:37;4.90;;;1.40;;
71646;SDS011;59706;45.634;11.704;2023-04-24T14:00:06;5.30;;;1.30;;
71646;SDS011;59706;45.634;11.704;2023-04-24T14:02:36;5.60;;;2.00;;
71646;SDS011;59706;45.634;11.704;2023-04-24T14:05:04;5.10;;;1.70;;
71646;SDS011;59706;45.634;11.704;2023-04-24T14:07:33;5.40;;;1.50;;
71646;SDS011;59706;45.634;11.704;2023-04-24T14:10:00;4.70;;;1.60;;
71646;SDS011;59706;45.634;11.704;2023-04-24T14:12:28;4.60;;;1.60;;
71646;SDS011;59706;45.634;11.704;2023-04-24T14:14:55;5.40;;;1.50;;
71646;SDS011;59706;45.634;11.704;2023-04-24T14:17:22;4.90;;;1.60;;
71646;SDS011;59706;45.634;11.704;2023-04-24T14:19:50;4.30;;;1.40;;
71646;SDS011;59706;45.634;11.704;2023-04-24T14:22:18;4.40;;;1.40;;
71646;SDS011;59706;45.634;11.704;2023-04-24T14:24:45;5.80;;;1.70;;
71646;SDS011;59706;45.634;11.704;2023-04-24T14:27:13;5.60;;;1.90;;
71646;SDS011;59706;45.634;11.704;2023-04-24T14:29:40;5.50;;;1.70;;
71646;SDS011;59706;45.634;11.704;2023-04-24T14:32:08;6.00;;;1.50;;
71646;SDS011;59706;45.634;11.704;2023-04-24T14:34:35;5.30;;;1.70;;
71646;SDS011;59706;45.634;11.704;2023-04-24T14:37:03;5.00;;;1.70;;
71646;SDS011;59706;45.634;11.704;2023-04-24T14:39:30;5.70;;;1.80;;
71646;SDS011;59706;45.634;11.704;2023-04-24T14:41:58;5.30;;;1.60;;
71646;SDS011;59706;45.634;11.704;2023-04-24T14:44:24;5.20;;;1.80;;
71646;SDS011;59706;45.634;11.704;2023-04-24T14:46:52;4.90;;;1.50;;
71646;SDS011;59706;45.634;11.704;2023-04-24T14:49:20;5.60;;;1.70;;